Flight Track Log - Related Links

Times and Time Zones

All times are in EDT time to prevent confusion due to time zone crossing. See the FLG3432 flight status page for this flight to view local times or setup timezone preferences in your user account.

Time Position Orientation Groundspeed Altitude Reporting Facility
EDT Latitude Longitude Course Direction KTS MPH feet Rate Location/Type
Sat 06:53:37 AM 42.7483 -73.8256 304° West 157 181 1,000  Level Boston Center
Sat 06:54:01 AM 42.7481 -73.8508 269° West 157 181 2,100 1,780 Climbing Boston Center
Sat 06:55:08 AM 42.7469 -73.9386 269° West 235 270 3,700 1,890 Climbing Boston Center
Sat 06:56:00 AM 42.8191 -74.2404 282° West  Level FlightAware Approximate
Sat 06:56:08 AM 42.7603 -74.0322 281° West 274 315 6,100  Level Boston Center
Sat 06:57:00 AM 42.8430 -74.3909 283° West  Level FlightAware Approximate
Sat 06:57:08 AM 42.8219 -74.0961 323° Northwest 260 299 8,900  Level Boston Center
Sat 06:58:00 AM 42.8700 -74.5400 304° West  Level FlightAware Approximate
Sat 06:58:08 AM 42.8814 -74.1544 324° Northwest 277 319 10,800  Level Boston Center
Sat 06:59:08 AM 42.9636 -74.2389 323° Northwest 320 368 12,600 1,950 Climbing Boston Center
Sat 07:00:08 AM 43.0372 -74.3119 324° Northwest 352 405 14,700 2,350 Climbing Boston Center
Sat 07:01:08 AM 43.1253 -74.4058 322° Northwest 364 419 17,300 2,150 Climbing Boston Center
Sat 07:02:08 AM 43.1647 -74.5408 292° West 364 419 19,000 1,750 Climbing Boston Center
Sat 07:03:08 AM 43.2036 -74.6789 291° West 377 434 20,800 1,800 Climbing Boston Center
Sat 07:04:08 AM 43.2425 -74.8200 291° West 390 449 22,600 1,600 Climbing Boston Center
Sat 07:05:08 AM 43.2831 -74.9672 291° West 396 456 24,000 1,400 Climbing Boston Center
Sat 07:06:08 AM 43.3217 -75.1114 290° West 402 463 25,400 1,250 Climbing Boston Center
Sat 07:07:08 AM 43.3578 -75.2558 289° West 416 479 26,500 1,100 Climbing Boston Center
Sat 07:08:08 AM 43.4017 -75.4122 291° West 434 499 27,600 1,050 Climbing Boston Center
Sat 07:09:08 AM 43.4433 -75.5686 290° West 439 505 28,600 1,100 Climbing Boston Center
Sat 07:10:08 AM 43.4847 -75.7283 290° West 439 505 29,800 1,450 Climbing Boston Center
Sat 07:11:08 AM 43.5258 -75.8881 290° West 446 513 31,500 1,600 Climbing Boston Center
Sat 07:12:08 AM 43.5669 -76.0422 290° West 441 507 33,000 1,400 Climbing Boston Center
Sat 07:13:08 AM 43.6058 -76.1939 290° West 435 501 34,300 1,100 Climbing Boston Center
Sat 07:14:08 AM 43.6425 -76.3453 289° West 430 495 35,200 800 Climbing Boston Center
Sat 07:15:08 AM 43.6811 -76.4944 290° West 425 489 35,900 400 Climbing Boston Center
Sat 07:16:08 AM 43.7194 -76.6492 289° West 420 483 36,000 75 Climbing Boston Center
Sat 07:16:28 AM 43.7333 -76.6833 299° West 420 483 36,000  Level Toronto Center
Sat 07:17:28 AM 43.7667 -76.8333 287° West 430 495 36,000  Level Toronto Center
Sat 07:18:28 AM 43.8000 -77.0000 286° West 440 506 36,000  Level Toronto Center
Sat 07:19:28 AM 43.8333 -77.1667 286° West 440 506 36,000  Level Toronto Center
Sat 07:20:28 AM 43.8667 -77.3500 284° West 440 506 36,000  Level Toronto Center
Sat 07:21:28 AM 43.9167 -77.4833 298° West 450 518 36,000  Level Toronto Center
Sat 07:22:28 AM 43.9667 -77.6333 295° West 440 506 36,000  Level Toronto Center
Sat 07:23:28 AM 44.0000 -77.8167 284° West 440 506 36,000  Level Toronto Center
Sat 07:24:28 AM 44.0333 -77.9833 286° West 440 506 36,000  Level Toronto Center
Sat 07:25:28 AM 44.0667 -78.1500 286° West 450 518 36,000  Level Toronto Center
Sat 07:26:28 AM 44.1000 -78.3167 286° West 440 506 36,000  Level Toronto Center
Sat 07:27:28 AM 44.1333 -78.4667 287° West 440 506 36,000  Level Toronto Center
Sat 07:28:28 AM 44.1833 -78.6333 293° West 440 506 36,000  Level Toronto Center
Sat 07:29:28 AM 44.2333 -78.8000 293° West 450 518 36,000  Level Toronto Center
Sat 07:30:28 AM 44.2667 -78.9500 287° West 450 518 36,000  Level Toronto Center
Sat 07:31:28 AM 44.3000 -79.1167 286° West 450 518 36,000  Level Toronto Center
Sat 07:32:28 AM 44.3167 -79.3000 277° West 450 518 36,000  Level Toronto Center
Sat 07:33:28 AM 44.3333 -79.4667 278° West 450 518 36,000  Level Toronto Center
Sat 07:34:28 AM 44.3333 -79.6500 270° West 450 518 36,000  Level Toronto Center
Sat 07:35:28 AM 44.3500 -79.8167 278° West 450 518 36,000  Level Toronto Center
Sat 07:36:28 AM 44.3667 -80.0000 277° West 450 518 36,000  Level Toronto Center
Sat 07:37:28 AM 44.3667 -80.1667 270° West 450 518 36,000  Level Toronto Center
Sat 07:38:28 AM 44.3833 -80.3333 278° West 450 518 36,000  Level Toronto Center
Sat 07:39:28 AM 44.4000 -80.5167 277° West 450 518 36,000  Level Toronto Center
Sat 07:40:28 AM 44.4000 -80.6833 270° West 450 518 36,000  Level Toronto Center
Sat 07:41:28 AM 44.4000 -80.8667 270° West 450 518 36,000  Level Toronto Center
Sat 07:42:28 AM 44.4167 -81.0500 277° West 450 518 36,000  Level Toronto Center
Sat 07:43:28 AM 44.4167 -81.2167 270° West 450 518 36,000  Level Toronto Center
Sat 07:44:28 AM 44.4333 -81.4000 277° West 450 518 36,000  Level Toronto Center
Sat 07:45:28 AM 44.4500 -81.6000 277° West 450 518 36,000  Level Toronto Center
Sat 07:46:28 AM 44.4500 -81.7500 270° West 450 518 36,000  Level Toronto Center
Sat 07:47:28 AM 44.4500 -81.9500 270° West 450 518 36,000  Level Toronto Center
Sat 07:48:28 AM 44.4500 -82.1167 270° West 450 518 36,000  Level Toronto Center
Sat 07:49:28 AM 44.4667 -82.3000 277° West 450 518 36,000  Level Toronto Center
Sat 07:50:28 AM 44.4833 -82.4667 278° West 450 518 36,000  Level Toronto Center
Sat 07:51:28 AM 44.5000 -82.6167 279° West 450 518 36,000  Level Toronto Center
Sat 07:51:46 AM 44.4986 -82.6733 268° West 452 520 36,000  Level Minneapolis Center
Sat 07:52:46 AM 44.5167 -82.8481 278° West 454 522 36,000  Level Minneapolis Center
Sat 07:53:47 AM 44.5294 -83.0219 276° West 452 520 36,000  Level Minneapolis Center
Sat 07:54:48 AM 44.5436 -83.1978 277° West 454 522 36,000  Level Minneapolis Center
Sat 07:55:49 AM 44.5583 -83.3725 277° West 454 522 36,000  Level Minneapolis Center
Sat 07:56:49 AM 44.5711 -83.5464 276° West 451 519 36,000  Level Minneapolis Center
Sat 07:57:50 AM 44.5878 -83.7583 276° West 456 525 36,000  Level Minneapolis Center
Sat 07:58:51 AM 44.6003 -83.9328 276° West 453 521 36,000  Level Minneapolis Center
Sat 07:59:52 AM 44.6133 -84.1103 276° West 456 525 36,000  Level Minneapolis Center
Sat 08:00:53 AM 44.6256 -84.2850 276° West 455 524 36,000  Level Minneapolis Center
Sat 08:01:54 AM 44.6383 -84.4628 276° West 457 526 36,000  Level Minneapolis Center
Sat 08:02:54 AM 44.6497 -84.6400 275° West 458 527 36,000  Level Minneapolis Center
Sat 08:03:55 AM 44.6614 -84.8164 275° West 456 525 36,000  Level Minneapolis Center
Sat 08:04:56 AM 44.6731 -84.9953 275° West 460 529 36,000  Level Minneapolis Center
Sat 08:05:57 AM 44.6850 -85.1744 275° West 461 531 36,000  Level Minneapolis Center
Sat 08:06:58 AM 44.6953 -85.3528 275° West 460 529 36,000  Level Minneapolis Center
Sat 08:07:59 AM 44.7064 -85.5317 275° West 461 531 36,000  Level Minneapolis Center
Sat 08:08:59 AM 44.7169 -85.7297 274° West 460 529 36,000  Level Minneapolis Center
Sat 08:10:00 AM 44.7278 -85.9100 275° West 464 534 36,000  Level Minneapolis Center
Sat 08:11:01 AM 44.7378 -86.0894 275° West 463 533 36,000  Level Minneapolis Center
Sat 08:12:02 AM 44.7472 -86.2714 274° West 466 536 36,000  Level Minneapolis Center
Sat 08:13:03 AM 44.7569 -86.4519 274° West 467 537 36,000  Level Minneapolis Center
Sat 08:14:04 AM 44.7650 -86.6325 274° West 466 536 36,000  Level Minneapolis Center
Sat 08:15:05 AM 44.7736 -86.8108 274° West 463 533 36,000  Level Minneapolis Center
Sat 08:16:06 AM 44.7811 -86.9911 273° West 462 532 36,000  Level Minneapolis Center
Sat 08:17:06 AM 44.7894 -87.1697 274° West 459 528 36,000  Level Minneapolis Center
Sat 08:18:07 AM 44.7975 -87.3503 274° West 461 531 36,000  Level Minneapolis Center
Sat 08:19:08 AM 44.8058 -87.5644 273° West 459 528 36,000  Level Minneapolis Center
Sat 08:20:09 AM 44.8139 -87.7433 274° West 459 528 36,000  Level Minneapolis Center
Sat 08:21:10 AM 44.8197 -87.9217 273° West 457 526 36,000  Level Minneapolis Center
Sat 08:22:11 AM 44.8272 -88.0997 273° West 456 525 36,000  Level Minneapolis Center
Sat 08:23:12 AM 44.8325 -88.2431 273° West 459 528 36,000  Level Minneapolis Center
Sat 08:24:13 AM 44.8389 -88.4483 273° West 459 528 36,000  Level Minneapolis Center
Sat 08:25:14 AM 44.8458 -88.6267 273° West 458 527 36,000  Level Minneapolis Center
Sat 08:26:15 AM 44.8508 -88.8353 272° West 458 527 36,000  Level Minneapolis Center
Sat 08:27:16 AM 44.8567 -89.0136 273° West 458 527 36,000 -689 Level Minneapolis Center
Sat 08:28:17 AM 44.8614 -89.1936 272° West 460 529 34,600 -984 Descending Minneapolis Center
Sat 08:29:18 AM 44.8650 -89.3447 272° West 463 533 34,000 -295 Descending Minneapolis Center
Sat 08:30:19 AM 44.8706 -89.5583 272° West 466 536 34,000 -195 Level Minneapolis Center
Sat 08:31:21 AM 44.8739 -89.7417 272° West 468 539 33,600 -780 Descending Minneapolis Center
Sat 08:32:22 AM 44.8778 -89.9322 272° West 453 521 32,400 -787 Descending Minneapolis Center
Sat 08:33:23 AM 44.8817 -90.1122 272° West 455 524 32,000 -197 Descending Minneapolis Center
Sat 08:34:24 AM 44.8842 -90.2872 271° West 448 516 32,000 -295 Level Minneapolis Center
Sat 08:35:25 AM 44.8872 -90.4633 271° West 449 517 31,400 -1,230 Descending Minneapolis Center
Sat 08:36:26 AM 44.8894 -90.6342 271° West 437 503 29,500 -1,869 Descending Minneapolis Center
Sat 08:37:27 AM 44.8928 -90.7992 272° West 424 488 27,600 -1,770 Descending Minneapolis Center
Sat 08:38:28 AM 44.8931 -90.9550 270° West 423 487 25,900 -1,721 Descending Minneapolis Center
Sat 08:39:29 AM 44.8956 -91.1161 271° West 415 478 24,100 -934 Descending Minneapolis Center
Sat 08:40:30 AM 44.8978 -91.3022 271° West 403 464 24,000 -295 Descending Minneapolis Center
Sat 08:41:31 AM 44.8969 -91.4581 270° West 400 460 23,500 -1,366 Descending Minneapolis Center
Sat 08:42:33 AM 44.9206 -91.6053 283° West 388 447 21,200 -2,293 Descending Minneapolis Center
Sat 08:43:34 AM 44.9481 -91.7494 285° West 384 442 18,800 -2,164 Descending Minneapolis Center
Sat 08:44:35 AM 44.9775 -91.8897 287° West 377 434 16,800 -2,016 Descending Minneapolis Center
Sat 08:45:36 AM 45.0022 -92.0222 285° West 354 407 14,700 -2,066 Descending Minneapolis Center
Sat 08:46:37 AM 45.0256 -92.1525 284° West 345 397 12,600 -1,770 Descending Minneapolis Center
Sat 08:47:38 AM 45.0478 -92.2792 284° West 336 387 11,100 -836 Descending Minneapolis Center
Sat 08:48:39 AM 45.0319 -92.3964 259° West 305 351 10,900 -738 Descending Minneapolis Center
Sat 08:49:40 AM 45.0150 -92.5086 258° West 294 338 9,600 -1,033 Descending Minneapolis Center
Sat 08:50:41 AM 44.9961 -92.6292 258° West 255 293 8,800 -787 Descending Minneapolis Center
Sat 08:51:42 AM 44.9814 -92.7225 257° West 247 284 8,000 -836 Descending Minneapolis Center
Sat 08:52:43 AM 44.9700 -92.7942 257° West 239 275 7,100 -492 Descending Minneapolis Center
Sat 08:53:44 AM 44.9203 -92.8517 219° Southwest 220 253 7,000 -148 Descending Minneapolis Center
Sat 08:54:45 AM 44.8744 -92.8106 148° Southeast 204 235 6,800 -738 Descending Minneapolis Center
Sat 08:55:46 AM 44.8417 -92.7503 127° Southeast 193 222 5,500 -1,230 Descending Minneapolis Center
Sat 08:56:47 AM 44.8086 -92.6903 128° Southeast 195 224 4,300 -738 Descending Minneapolis Center
Sat 08:57:48 AM 44.7656 -92.6722 163° South 199 229 4,000 -148 Descending Minneapolis Center
Sat 08:58:49 AM 44.7192 -92.7122 211° Southwest 195 224 4,000  Level Minneapolis Center
Sat 08:59:52 AM 44.7144 -92.7886 265° West 201 231 4,000  Level Minneapolis Center
Sat 09:00:53 AM 44.7419 -92.8747 294° West 203 234 4,000  Level Minneapolis Center
Sat 09:01:53 AM 44.7700 -92.9383 302° West 194 223 4,000  Level Minneapolis Center
Sat 09:02:54 AM 44.7983 -93.0031 302° West 195 224 4,000  Level Minneapolis Center

Login

Don't have an account? Register now (free) for customized features, flight alerts, and more!